Terminal Aerodrome Forecast
Issued by NWS La Crosse, WI

Home | Current Version | Previous Version | Text Only | Print | Product List | Glossary On
Versions: 1 2 3 4 5 6 7 8 9 10 11 12 13 14 15 16 17 18 19 20 21 22 23 24 25 26
000
FTUS43 KARX 290215 AAA
TAFLSE
TAF AMD
KLSE 290215Z 2902/2924 13005KT P6SM BKN015 OVC025
     FM290700 14006KT 5SM BR VCSH OVC007
     FM291400 17008KT P6SM OVC009
     FM291600 18010KT P6SM BKN012
     FM291800 18010KT P6SM BKN025
      TEMPO 2920/2924 3SM TSRA BKN030CB=

USA.gov is the U.S. government's official web portal to all federal, state and local government web resources and services.